Lahore Weather



Lahore's Current Weather

Temprature 36.99o smoke

smoke

Rain: 0 %

Min Temprature35.06o
Max Temprature36.99o
Humidity49
Wind Speed2.57 m/h
Sun Rise05:13:26
Sun Set19:04:30
Current Time: 24-Jul-2021 16:22:37
Lat/Lon: 31.5497, 74.3436




Lahore's Geo Location



Lahore's Weather Forecast

Time Overall Temp Min Temp Max Temp Humidity Wind Speed Rain
24-Jul-2021 (Sat)
17:00:00 scattered clouds 36.990 36.990 40.470 49 1.54 m/h 0 %
20:00:00 scattered clouds 37.110 37.110 37.360 46 3.61 m/h 0 %
23:00:00 scattered clouds 36.450 36.180 36.450 45 3.09 m/h 0 %
25-Jul-2021 (Sun)
02:00:00 broken clouds 34.900 34.900 34.900 47 2.71 m/h 0 %
05:00:00 broken clouds 34.010 34.010 34.010 50 1.52 m/h 0 %
08:00:00 overcast clouds 36.570 36.570 36.570 43 1.77 m/h 0 %
11:00:00 broken clouds 41.170 41.170 41.170 32 1.12 m/h 0 %
14:00:00 overcast clouds 41.160 41.160 41.160 30 2.39 m/h 0 %
17:00:00 broken clouds 40.750 40.750 40.750 32 3.85 m/h 0 %
20:00:00 overcast clouds 35.670 35.670 35.670 49 5.53 m/h 0 %
23:00:00 overcast clouds 33.650 33.650 33.650 60 5.14 m/h 0 %
26-Jul-2021 (Mon)
02:00:00 broken clouds 32.290 32.290 32.290 62 4.54 m/h 0 %
05:00:00 overcast clouds 31.360 31.360 31.360 66 4.74 m/h 0 %
08:00:00 overcast clouds 32.270 32.270 32.270 64 4.23 m/h 0 %
11:00:00 overcast clouds 36.630 36.630 36.630 49 3.26 m/h 0 %
14:00:00 broken clouds 40.560 40.560 40.560 36 3.23 m/h 0 %
17:00:00 light rain 38.290 38.290 38.290 41 4.06 m/h 80 %
20:00:00 light rain 33.450 33.450 33.450 59 5.67 m/h 119 %
23:00:00 overcast clouds 31.980 31.980 31.980 64 5.09 m/h 0 %
27-Jul-2021 (Tue)
02:00:00 overcast clouds 29.200 29.200 29.200 80 5.62 m/h 0 %
05:00:00 overcast clouds 28.980 28.980 28.980 80 4.94 m/h 0 %
08:00:00 overcast clouds 31.340 31.340 31.340 62 2.8 m/h 0 %
11:00:00 overcast clouds 34.780 34.780 34.780 49 4.14 m/h 0 %
14:00:00 overcast clouds 35.000 35.000 35.000 48 5.22 m/h 0 %
17:00:00 overcast clouds 35.400 35.400 35.400 44 4.87 m/h 0 %
20:00:00 overcast clouds 32.790 32.790 32.790 54 5.45 m/h 0 %
23:00:00 light rain 29.900 29.900 29.900 65 5.64 m/h 49 %
28-Jul-2021 (Wed)
02:00:00 moderate rain 27.880 27.880 27.880 80 3.96 m/h 548 %
05:00:00 light rain 27.410 27.410 27.410 84 3.43 m/h 250 %
08:00:00 light rain 27.630 27.630 27.630 83 4.48 m/h 93 %
11:00:00 light rain 28.420 28.420 28.420 78 4.14 m/h 144 %
14:00:00 light rain 28.880 28.880 28.880 76 3.91 m/h 45 %
17:00:00 light rain 28.860 28.860 28.860 76 3.8 m/h 13 %
20:00:00 overcast clouds 27.610 27.610 27.610 83 2.77 m/h 0 %
23:00:00 overcast clouds 27.120 27.120 27.120 85 2.84 m/h 0 %
29-Jul-2021 (Thu)
02:00:00 overcast clouds 26.670 26.670 26.670 87 2.6 m/h 0 %
05:00:00 overcast clouds 26.490 26.490 26.490 86 1.66 m/h 0 %
08:00:00 scattered clouds 29.230 29.230 29.230 73 2.19 m/h 0 %
11:00:00 scattered clouds 34.170 34.170 34.170 53 1.63 m/h 0 %
14:00:00 light rain 35.360 35.360 35.360 48 0.89 m/h 39 %


Lahore's Tourist Spots

Historical Places in Lahore

Famous Cities (60)